Mugla, Turkey
Current Conditions -  °F | °C
As of 4:20 PM on Thursday 29 Jan 2015 (Local Time) from LTFE Reporting Station
Thunderstorm Thunderstorm  
Wind Chill: 12°   Ceiling: 9000
Heat Index: 12°   Visibility: 6mi
Dew Point:   Wind: 3mph
Humidity: 77%   Direction: 110°ESE
Pressure: 29.77"   Gusts: NA
Location:  37.22°N, 28.36°E
Report Text: LTFE 291420Z 11003KT 030V190 9999 -TSRA FEW018CB SCT030 BKN090 12/08 Q1008 BECMG TL1450 NSW
Loading
Personal Weather Stations






























Interactive Weather Map New forecast layout! Learn more

10-Day Weather Forecast

Advertisements
Track Severe Weather on mobile